Aktuální počasí v Česku a ve světě - METAR

Seznam meteostanic umístěných nejčasteji na letišti v ČR a ve světě

Vyhledat místa podle abecedy:
A B C D E F G H I J K L M N O P Q R S T U V W X Y Z

Filtrovat:

ID stanice:
a/nebo
Název místa (fulltext):
 
Místo (ID)Naposledy načteno 
Iasi (LRIA) 16.07.2020 14:00 UTC Zobrazit METAR
LRIA 161400Z VRB02KT CAVOK 24/11 Q1012
Ibiza (LEIB) 16.07.2020 14:00 UTC Zobrazit METAR
LEIB 161400Z 10008KT 020V190 9999 FEW027 28/19 Q1018 NOSIG
Innsbruck (LOWI) 16.07.2020 13:50 UTC Zobrazit METAR
LOWI 161350Z VRB01KT 9999 FEW025 SCT035 OVC085 19/13 Q1017 TEMPO -SHRA
Iraklion (LGIR) 16.07.2020 13:50 UTC Zobrazit METAR
LGIR 161350Z 32012KT 9999 FEW025 27/22 Q1010 NOSIG
Isafjordur (BIIS) 16.07.2020 14:00 UTC Zobrazit METAR
BIIS 161400Z 02020G30KT 9999 +RA BKN012 OVC018 08/06 Q0985
Isla de Pascua (SCIP) 16.07.2020 14:00 UTC Zobrazit METAR
SCIP 161400Z 21003KT 160V260 9999 FEW020 BKN040 19/15 Q1020 NOSIG
Islamabad (OPRN) 28.12.2019 11:00 UTC Zobrazit METAR
OPRN 281100Z 05004KT 1400 BR SCT100 11/08 Q1016 BECMG 1500 BR
Istanbul (LTBA) 16.07.2020 13:50 UTC Zobrazit METAR
LTBA 161350Z 01012KT 340V050 CAVOK 26/13 Q1011 NOSIG
Ivano-Frankivs'k (UKLI) Zatím nenačteno  
Reklama

Počasí na Váš email

Emaily jsou bez reklamy a bez spamu



Odhlásit newsletter



❤️ Podpořte nás

Napište o nás recenzi na Google
Ohodnoťte nás na Firmy.cz

Pošlete nám finanční podporu - firma nedostala žádné dotace ani podporu z Coronaviru, zato letos platíme vyšší daně.
Další české internetové stránky (nejen) o počasí najdete v katalogu TOPlist - weby o počasí nebo vyhledejte na internetu, co jste tu na 🌞 Slunečnu ⛅ zatím nenašli:
⬆️ Posunout nahoru ⬆️
Reklama